Time;durP1;ratioP1;P1;durP2;ratioP2;P2;SDS_P1;SDS_P2;PMS_P1;PMS_P2;Temp;Humidity;BMP_temperature;BMP_pressure;BME280_temperature;BME280_humidity;BME280_pressure;Samples;Min_cycle;Max_cycle;Signal;HPM_P1;HPM_P2
2022/05/21 00:01:58;;;;;;;;;;;;;;;;;;5062599;28;1162;-71
2022/05/21 00:04:24;;;;;;;;;;;;;;;;;;5061527;28;1348;-71
2022/05/21 00:06:49;;;;;;;;;;;;;;;;;;5061850;28;1846;-71
2022/05/21 00:09:14;;;;;;;;;;;;;;;;;;5061310;28;1388;-71
2022/05/21 00:11:39;;;;;;;;;;;;;;;;;;5062878;28;815;-71
2022/05/21 00:14:05;;;;;;;;;;;;;;;;;;5062361;28;1442;-71
2022/05/21 00:16:30;;;;;;;;;;;;;;;;;;5061496;28;2684;-71
2022/05/21 00:18:56;;;;;;;;;;;;;;;;;;5061676;28;1965;-71
2022/05/21 00:21:21;;;;;;;;;;;;;;;;;;5055926;28;1708;-71
2022/05/21 00:23:46;;;;;;;;;;;;;;;;;;5062648;28;1095;-70
2022/05/21 00:26:13;;;;;;;;;;;;;;;;;;5061683;28;1467;-71
2022/05/21 00:28:39;;;;;;;;;;;;;;;;;;5055044;28;1629;-70
2022/05/21 00:31:05;;;;;;;;;;;;;;;;;;5062455;28;1463;-71
2022/05/21 00:33:31;;;;;;;;;;;;;;;;;;5061683;28;1439;-72
2022/05/21 00:35:57;;;;;;;;;;;;;;;;;;5054412;28;1712;-72
2022/05/21 00:38:22;;;;;;;;;;;;;;;;;;5061332;28;1248;-73
2022/05/21 00:40:48;;;;;;;;;;;;;;;;;;5062197;28;1882;-72
2022/05/21 00:43:33;;;;;;;;;;;;;;;;;;5062345;28;996;-72
2022/05/21 00:45:59;;;;;;;;;;;;;;;;;;5061256;28;1581;-71
2022/05/21 00:48:24;;;;;;;;;;;;;;;;;;5074889;28;1527;-71
2022/05/21 00:50:49;;;;;;;;;;;;;;;;;;5063589;28;1719;-71
2022/05/21 00:53:14;;;;;;;;;;;;;;;;;;5060418;28;1209;-71
2022/05/21 00:55:41;;;;;;;;;;;;;;;;;;5060244;28;1760;-71
2022/05/21 01:01:07;;;;;;;;;;;;;;;;;;5047734;28;1550;-69
2022/05/21 01:03:32;;;;;;;;;;;;;;;;;;5061564;28;1482;-70
2022/05/21 01:05:58;;;;;;;;;;;;;;;;;;5056490;28;1741;-70
2022/05/21 01:08:24;;;;;;;;;;;;;;;;;;5060896;28;1287;-70
2022/05/21 01:10:53;;;;;;;;;;;;;;;;;;5060367;28;1455;-69
2022/05/21 01:13:19;;;;;;;;;;;;;;;;;;5060506;28;1354;-69
2022/05/21 01:15:46;;;;;;;;;;;;;;;;;;5060462;28;1482;-69
2022/05/21 01:18:12;;;;;;;;;;;;;;;;;;5060738;28;1427;-70
2022/05/21 01:20:38;;;;;;;;;;;;;;;;;;5059459;28;1973;-71
2022/05/21 01:23:04;;;;;;;;;;;;;;;;;;5057229;28;1510;-71
2022/05/21 01:25:31;;;;;;;;;;;;;;;;;;5061306;28;1222;-70
2022/05/21 01:27:58;;;;;;;;;;;;;;;;;;5060890;28;1529;-71
2022/05/21 01:30:26;;;;;;;;;;;;;;;;;;5060935;28;1562;-71
2022/05/21 01:32:52;;;;;;;;;;;;;;;;;;5061588;28;782;-71
2022/05/21 01:35:18;;;;;;;;;;;;;;;;;;5053352;28;1720;-71
2022/05/21 01:37:43;;;;;;;;;;;;;;;;;;5060441;28;1263;-71
2022/05/21 01:40:09;;;;;;;;;;;;;;;;;;5060050;28;1957;-71
2022/05/21 01:42:35;;;;;;;;;;;;;;;;;;5053080;28;1158;-71
2022/05/21 01:45:00;;;;;;;;;;;;;;;;;;5059347;28;1518;-71
2022/05/21 01:47:25;;;;;;;;;;;;;;;;;;5060066;28;1258;-71
2022/05/21 01:49:51;;;;;;;;;;;;;;;;;;5059304;28;1760;-71
2022/05/21 01:52:17;;;;;;;;;;;;;;;;;;5061227;28;1236;-70
2022/05/21 01:54:42;;;;;;;;;;;;;;;;;;5060856;28;1497;-70
2022/05/21 01:57:09;;;;;;;;;;;;;;;;;;5061022;28;1410;-71
2022/05/21 01:59:34;;;;;;;;;;;;;;;;;;5060245;28;1956;-71
2022/05/21 02:02:01;;;;;;;;;;;;;;;;;;5060813;28;1446;-71
2022/05/21 02:04:26;;;;;;;;;;;;;;;;;;5056288;28;1780;-71
2022/05/21 02:06:51;;;;;;;;;;;;;;;;;;5061163;28;1252;-71
2022/05/21 02:09:17;;;;;;;;;;;;;;;;;;5055753;28;1514;-71
2022/05/21 02:11:43;;;;;;;;;;;;;;;;;;5061307;28;1204;-70
2022/05/21 02:14:09;;;;;;;;;;;;;;;;;;5060212;28;1425;-70
2022/05/21 02:16:35;;;;;;;;;;;;;;;;;;5060963;28;830;-70
2022/05/21 02:19:02;;;;;;;;;;;;;;;;;;5052802;28;1905;-70
2022/05/21 02:21:30;;;;;;;;;;;;;;;;;;5060597;28;1196;-70
2022/05/21 02:23:55;;;;;;;;;;;;;;;;;;5060832;28;886;-70
2022/05/21 02:26:21;;;;;;;;;;;;;;;;;;5060556;28;874;-70
2022/05/21 02:28:46;;;;;;;;;;;;;;;;;;5059930;28;1477;-70
2022/05/21 02:31:11;;;;;;;;;;;;;;;;;;5059275;28;1499;-70
2022/05/21 02:33:36;;;;;;;;;;;;;;;;;;5054447;28;1443;-70
2022/05/21 02:36:02;;;;;;;;;;;;;;;;;;5060579;28;1232;-70
2022/05/21 02:41:12;;;;;;;;;;;;;;;;;;5060667;28;1485;-70
2022/05/21 02:43:37;;;;;;;;;;;;;;;;;;5060452;28;981;-70
2022/05/21 02:46:03;;;;;;;;;;;;;;;;;;5052239;28;1502;-70
2022/05/21 02:48:29;;;;;;;;;;;;;;;;;;5057359;28;1611;-71
2022/05/21 02:50:55;;;;;;;;;;;;;;;;;;5060351;28;1458;-73
2022/05/21 02:53:20;;;;;;;;;;;;;;;;;;5059261;28;1752;-72
2022/05/21 02:55:46;;;;;;;;;;;;;;;;;;5059619;28;1470;-70
2022/05/21 02:58:11;;;;;;;;;;;;;;;;;;5060082;28;1346;-70
2022/05/21 03:00:37;;;;;;;;;;;;;;;;;;5063243;28;1967;-71
2022/05/21 03:03:02;;;;;;;;;;;;;;;;;;5063405;28;1396;-71
2022/05/21 03:05:29;;;;;;;;;;;;;;;;;;5063254;28;1159;-71
2022/05/21 03:07:54;;;;;;;;;;;;;;;;;;5060752;28;1482;-71
2022/05/21 03:10:21;;;;;;;;;;;;;;;;;;5062799;28;1251;-71
2022/05/21 03:12:47;;;;;;;;;;;;;;;;;;5060871;28;1474;-71
2022/05/21 03:15:12;;;;;;;;;;;;;;;;;;5063136;28;1293;-71
2022/05/21 03:17:37;;;;;;;;;;;;;;;;;;5060733;28;1340;-70
2022/05/21 03:20:03;;;;;;;;;;;;;;;;;;5063395;28;1941;-71
2022/05/21 03:22:29;;;;;;;;;;;;;;;;;;5062894;28;1226;-71
2022/05/21 03:24:54;;;;;;;;;;;;;;;;;;5063332;28;1900;-71
2022/05/21 03:27:20;;;;;;;;;;;;;;;;;;5059554;28;1398;-71
2022/05/21 03:29:45;;;;;;;;;;;;;;;;;;5062819;28;1133;-71
2022/05/21 03:32:10;;;;;;;;;;;;;;;;;;5063468;28;842;-70
2022/05/21 03:34:36;;;;;;;;;;;;;;;;;;5061811;28;1442;-71
2022/05/21 03:37:01;;;;;;;;;;;;;;;;;;5076464;28;1234;-71
2022/05/21 03:39:28;;;;;;;;;;;;;;;;;;5075189;28;1921;-71
2022/05/21 03:41:54;;;;;;;;;;;;;;;;;;5061615;28;1383;-71
2022/05/21 03:44:19;;;;;;;;;;;;;;;;;;5062026;28;1250;-70
2022/05/21 03:46:44;;;;;;;;;;;;;;;;;;5060244;28;1498;-69
2022/05/21 03:49:10;;;;;;;;;;;;;;;;;;5062077;28;1271;-70
2022/05/21 03:51:37;;;;;;;;;;;;;;;;;;5062397;28;1289;-70
2022/05/21 03:54:02;;;;;;;;;;;;;;;;;;5062610;28;1340;-70
2022/05/21 03:56:27;;;;;;;;;;;;;;;;;;5061278;28;1331;-70
2022/05/21 03:58:53;;;;;;;;;;;;;;;;;;5061643;28;1964;-71
2022/05/21 04:01:18;;;;;;;;;;;;;;;;;;5062297;28;1566;-73
2022/05/21 04:03:43;;;;;;;;;;;;;;;;;;5062223;28;1298;-71
2022/05/21 04:06:08;;;;;;;;;;;;;;;;;;5062913;28;1734;-70
2022/05/21 04:08:33;;;;;;;;;;;;;;;;;;5061474;28;1297;-71
2022/05/21 04:10:59;;;;;;;;;;;;;;;;;;5057060;28;1430;-72
2022/05/21 04:13:26;;;;;;;;;;;;;;;;;;5061210;28;1181;-71
2022/05/21 04:15:51;;;;;;;;;;;;;;;;;;5059196;28;1760;-71
2022/05/21 04:18:17;;;;;;;;;;;;;;;;;;5060308;28;1339;-71
2022/05/21 04:20:42;;;;;;;;;;;;;;;;;;5061473;28;1894;-71
2022/05/21 04:23:08;;;;;;;;;;;;;;;;;;5062481;28;989;-71
2022/05/21 04:25:33;;;;;;;;;;;;;;;;;;5060481;28;1716;-71
2022/05/21 04:27:58;;;;;;;;;;;;;;;;;;5054268;28;1465;-70
2022/05/21 04:30:26;;;;;;;;;;;;;;;;;;5057455;28;1638;-71
2022/05/21 04:32:52;;;;;;;;;;;;;;;;;;5062491;28;1330;-70
2022/05/21 04:35:18;;;;;;;;;;;;;;;;;;5061407;28;1635;-72
2022/05/21 04:37:43;;;;;;;;;;;;;;;;;;5048630;28;1485;-72
2022/05/21 04:40:10;;;;;;;;;;;;;;;;;;5049723;28;1886;-72
2022/05/21 04:42:36;;;;;;;;;;;;;;;;;;5042547;28;1482;-71
2022/05/21 04:45:02;;;;;;;;;;;;;;;;;;5042966;28;1557;-72
2022/05/21 04:47:27;;;;;;;;;;;;;;;;;;5042109;28;831;-71
2022/05/21 04:49:52;;;;;;;;;;;;;;;;;;5064458;28;1962;-71
2022/05/21 04:52:17;;;;;;;;;;;;;;;;;;5053126;28;1295;-72
2022/05/21 04:54:42;;;;;;;;;;;;;;;;;;5056323;28;1423;-72
2022/05/21 04:57:08;;;;;;;;;;;;;;;;;;5060618;28;1458;-72
2022/05/21 04:59:33;;;;;;;;;;;;;;;;;;5058993;28;1894;-72
2022/05/21 05:01:58;;;;;;;;;;;;;;;;;;5055100;28;1425;-72
2022/05/21 05:04:23;;;;;;;;;;;;;;;;;;5062033;28;822;-72
2022/05/21 05:06:49;;;;;;;;;;;;;;;;;;5060223;28;1486;-72
2022/05/21 05:09:17;;;;;;;;;;;;;;;;;;5061103;28;1274;-72
2022/05/21 05:11:42;;;;;;;;;;;;;;;;;;5055829;28;1446;-72
2022/05/21 05:14:07;;;;;;;;;;;;;;;;;;5050313;28;1228;-71
2022/05/21 05:16:32;;;;;;;;;;;;;;;;;;5042464;28;1447;-72
2022/05/21 05:18:58;;;;;;;;;;;;;;;;;;5040993;28;1960;-71
2022/05/21 05:21:23;;;;;;;;;;;;;;;;;;5042217;28;1576;-72
2022/05/21 05:23:48;;;;;;;;;;;;;;;;;;5058159;28;1666;-70
2022/05/21 05:26:13;;;;;;;;;;;;;;;;;;5059402;28;1274;-72
2022/05/21 05:28:38;;;;;;;;;;;;;;;;;;5054706;28;1514;-72
2022/05/21 05:31:04;;;;;;;;;;;;;;;;;;5056786;28;1479;-72
2022/05/21 05:33:30;;;;;;;;;;;;;;;;;;5061115;28;1247;-72
2022/05/21 05:35:55;;;;;;;;;;;;;;;;;;5058364;28;1120;-70
2022/05/21 05:38:21;;;;;;;;;;;;;;;;;;5059199;28;1467;-73
2022/05/21 05:40:47;;;;;;;;;;;;;;;;;;5054212;28;1953;-71
2022/05/21 05:43:13;;;;;;;;;;;;;;;;;;5041677;28;1611;-71
2022/05/21 05:45:38;;;;;;;;;;;;;;;;;;5053716;28;1443;-72
2022/05/21 05:48:04;;;;;;;;;;;;;;;;;;5060315;28;1330;-70
2022/05/21 05:50:29;;;;;;;;;;;;;;;;;;5061037;28;1287;-71
2022/05/21 05:52:54;;;;;;;;;;;;;;;;;;5060147;28;1532;-70
2022/05/21 05:55:20;;;;;;;;;;;;;;;;;;5059538;28;1419;-70
2022/05/21 05:57:54;;;;;;;;;;;;;;;;;;5057607;28;1431;-71
2022/05/21 06:00:20;;;;;;;;;;;;;;;;;;5052498;28;1890;-71
2022/05/21 06:02:58;;;;;;;;;;;;;;;;;;5054808;28;1268;-71
2022/05/21 06:05:23;;;;;;;;;;;;;;;;;;5055896;28;1608;-71
2022/05/21 06:07:49;;;;;;;;;;;;;;;;;;5056609;28;1541;-70
2022/05/21 06:10:17;;;;;;;;;;;;;;;;;;5057440;28;1348;-70
2022/05/21 06:12:42;;;;;;;;;;;;;;;;;;5053118;28;1580;-70
2022/05/21 06:15:09;;;;;;;;;;;;;;;;;;5046899;28;1498;-71
2022/05/21 06:17:34;;;;;;;;;;;;;;;;;;5055597;28;1333;-69
2022/05/21 06:19:59;;;;;;;;;;;;;;;;;;5052411;28;1893;-70
2022/05/21 06:22:25;;;;;;;;;;;;;;;;;;5060745;28;847;-70
2022/05/21 06:24:51;;;;;;;;;;;;;;;;;;5060770;28;973;-70
2022/05/21 06:27:16;;;;;;;;;;;;;;;;;;5057600;28;1513;-70
2022/05/21 06:29:41;;;;;;;;;;;;;;;;;;5058003;28;1610;-69
2022/05/21 06:32:07;;;;;;;;;;;;;;;;;;5060822;28;779;-70
2022/05/21 06:34:34;;;;;;;;;;;;;;;;;;5041248;28;1387;-70
2022/05/21 06:37:03;;;;;;;;;;;;;;;;;;5046989;28;961;-69
2022/05/21 06:39:30;;;;;;;;;;;;;;;;;;5057187;28;1886;-70
2022/05/21 06:41:55;;;;;;;;;;;;;;;;;;5056013;28;1696;-70
2022/05/21 06:44:20;;;;;;;;;;;;;;;;;;5059052;28;1600;-70
2022/05/21 06:46:45;;;;;;;;;;;;;;;;;;5060152;28;1157;-70
2022/05/21 06:49:10;;;;;;;;;;;;;;;;;;5055358;28;1964;-70
2022/05/21 06:51:35;;;;;;;;;;;;;;;;;;5069214;28;1546;-70
2022/05/21 06:54:01;;;;;;;;;;;;;;;;;;5069601;28;1596;-70
2022/05/21 06:56:26;;;;;;;;;;;;;;;;;;5057477;28;1576;-70
2022/05/21 06:58:51;;;;;;;;;;;;;;;;;;5062233;28;1910;-73
2022/05/21 07:01:17;;;;;;;;;;;;;;;;;;5062772;28;1667;-72
2022/05/21 07:03:42;;;;;;;;;;;;;;;;;;5069788;28;1258;-72
2022/05/21 07:08:51;;;;;;;;;;;;;;;;;;5059819;28;1505;-72
2022/05/21 07:11:16;;;;;;;;;;;;;;;;;;5065828;28;1688;-72
2022/05/21 07:13:42;;;;;;;;;;;;;;;;;;5060917;28;1911;-72
2022/05/21 07:16:07;;;;;;;;;;;;;;;;;;5056546;28;1631;-72
2022/05/21 07:18:32;;;;;;;;;;;;;;;;;;5067778;28;1228;-72
2022/05/21 07:20:57;;;;;;;;;;;;;;;;;;5067043;28;1889;-72
2022/05/21 07:23:24;;;;;;;;;;;;;;;;;;5061934;28;1700;-72
2022/05/21 07:25:49;;;;;;;;;;;;;;;;;;5061966;28;1681;-71
2022/05/21 07:28:15;;;;;;;;;;;;;;;;;;5063883;28;1616;-71
2022/05/21 07:30:42;;;;;;;;;;;;;;;;;;5056759;28;1705;-71
2022/05/21 07:33:09;;;;;;;;;;;;;;;;;;5064765;28;1636;-71
2022/05/21 07:35:37;;;;;;;;;;;;;;;;;;5063308;28;1489;-70
2022/05/21 07:38:02;;;;;;;;;;;;;;;;;;5066477;28;1322;-71
2022/05/21 07:40:27;;;;;;;;;;;;;;;;;;5060348;28;1893;-70
2022/05/21 07:42:53;;;;;;;;;;;;;;;;;;5065404;28;1613;-70
2022/05/21 07:45:20;;;;;;;;;;;;;;;;;;5069040;28;1580;-71
2022/05/21 07:47:45;;;;;;;;;;;;;;;;;;5054057;28;1191;-71
2022/05/21 07:50:11;;;;;;;;;;;;;;;;;;5056934;28;1889;-71
2022/05/21 07:52:37;;;;;;;;;;;;;;;;;;5063127;28;1092;-71
2022/05/21 07:55:03;;;;;;;;;;;;;;;;;;5059569;28;1933;-71
2022/05/21 07:57:28;;;;;;;;;;;;;;;;;;5057553;28;1703;-71
2022/05/21 07:59:53;;;;;;;;;;;;;;;;;;5059848;28;1955;-71
2022/05/21 08:02:19;;;;;;;;;;;;;;;;;;5061777;28;1597;-71
2022/05/21 08:04:45;;;;;;;;;;;;;;;;;;5061276;28;1509;-71
2022/05/21 08:07:10;;;;;;;;;;;;;;;;;;5061552;28;1770;-72
2022/05/21 08:09:36;;;;;;;;;;;;;;;;;;5060827;28;1584;-71
2022/05/21 08:12:02;;;;;;;;;;;;;;;;;;5056865;28;1727;-71
2022/05/21 08:14:27;;;;;;;;;;;;;;;;;;5058916;28;1624;-72
2022/05/21 08:16:52;;;;;;;;;;;;;;;;;;5062524;28;1283;-72
2022/05/21 08:19:18;;;;;;;;;;;;;;;;;;5059102;28;1922;-72
2022/05/21 08:21:43;;;;;;;;;;;;;;;;;;5057005;28;1667;-73
2022/05/21 08:27:00;;;;;;;;;;;;;;;;;;5058062;28;1217;-70
2022/05/21 08:29:30;;;;;;;;;;;;;;;;;;5054743;28;1862;-70
2022/05/21 08:31:56;;;;;;;;;;;;;;;;;;5060912;28;1726;-70
2022/05/21 08:34:22;;;;;;;;;;;;;;;;;;5055816;28;1546;-70
2022/05/21 08:36:47;;;;;;;;;;;;;;;;;;5062024;28;1655;-70
2022/05/21 08:39:13;;;;;;;;;;;;;;;;;;5058383;28;2001;-70
2022/05/21 08:42:04;;;;;;;;;;;;;;;;;;5053720;28;1647;-70
2022/05/21 08:44:35;;;;;;;;;;;;;;;;;;5051130;28;1765;-67
2022/05/21 08:47:20;;;;;;;;;;;;;;;;;;5057880;28;1056;-67
2022/05/21 08:49:50;;;;;;;;;;;;;;;;;;5058556;28;1818;-67
2022/05/21 08:52:35;;;;;;;;;;;;;;;;;;5057240;28;1894;-67
2022/05/21 08:55:03;;;;;;;;;;;;;;;;;;5058014;28;1696;-68
2022/05/21 08:57:32;;;;;;;;;;;;;;;;;;5061588;28;1124;-68
2022/05/21 09:00:06;;;;;;;;;;;;;;;;;;5061764;28;1910;-67
2022/05/21 09:02:33;;;;;;;;;;;;;;;;;;5060412;28;1533;-67
2022/05/21 09:04:58;;;;;;;;;;;;;;;;;;5057658;28;1941;-67
2022/05/21 09:07:26;;;;;;;;;;;;;;;;;;5048660;28;1672;-67
2022/05/21 09:09:55;;;;;;;;;;;;;;;;;;5056792;28;1545;-67
2022/05/21 09:12:22;;;;;;;;;;;;;;;;;;5049988;28;1759;-66
2022/05/21 09:14:56;;;;;;;;;;;;;;;;;;5055031;28;1851;-67
2022/05/21 09:17:25;;;;;;;;;;;;;;;;;;5060622;28;1652;-67
2022/05/21 09:19:52;;;;;;;;;;;;;;;;;;5059928;28;1937;-67
2022/05/21 09:22:18;;;;;;;;;;;;;;;;;;5047874;28;1699;-64
2022/05/21 09:24:44;;;;;;;;;;;;;;;;;;5054981;28;1084;-67
2022/05/21 09:27:26;;;;;;;;;;;;;;;;;;5054934;28;1933;-67
2022/05/21 09:29:52;;;;;;;;;;;;;;;;;;5054296;28;1946;-67
2022/05/21 09:32:20;;;;;;;;;;;;;;;;;;5066686;28;1262;-67
2022/05/21 09:34:58;;;;;;;;;;;;;;;;;;5053086;28;1846;-67
2022/05/21 09:37:26;;;;;;;;;;;;;;;;;;5053970;28;1553;-67
2022/05/21 09:39:52;;;;;;;;;;;;;;;;;;5060497;28;1968;-67
2022/05/21 09:45:22;;;;;;;;;;;;;;;;;;5056777;28;1929;-67
2022/05/21 09:47:47;;;;;;;;;;;;;;;;;;5056006;28;1866;-67
2022/05/21 09:50:12;;;;;;;;;;;;;;;;;;5062133;28;1946;-67
2022/05/21 09:52:38;;;;;;;;;;;;;;;;;;5054062;28;1544;-67
2022/05/21 09:55:04;;;;;;;;;;;;;;;;;;5061145;28;1163;-67
2022/05/21 09:57:29;;;;;;;;;;;;;;;;;;5059523;28;1273;-67
2022/05/21 10:00:13;;;;;;;;;;;;;;;;;;5055183;28;1953;-66
2022/05/21 10:02:41;;;;;;;;;;;;;;;;;;5048326;28;1565;-67
2022/05/21 10:05:08;;;;;;;;;;;;;;;;;;5053277;28;1545;-67
2022/05/21 10:13:13;;;;;;;;;;;;;;;;;;5051548;28;1621;-67
2022/05/21 10:15:43;;;;;;;;;;;;;;;;;;5052217;28;1745;-67
2022/05/21 10:18:23;;;;;;;;;;;;;;;;;;5046989;28;1938;-67
2022/05/21 10:20:52;;;;;;;;;;;;;;;;;;5059461;28;1898;-67
2022/05/21 10:23:24;;;;;;;;;;;;;;;;;;5057068;28;1984;-67
2022/05/21 10:26:01;;;;;;;;;;;;;;;;;;5052021;28;1686;-67
2022/05/21 10:28:26;;;;;;;;;;;;;;;;;;5058452;28;1381;-67
2022/05/21 10:30:51;;;;;;;;;;;;;;;;;;5053509;28;1984;-67
2022/05/21 10:33:35;;;;;;;;;;;;;;;;;;5058498;28;1092;-67
2022/05/21 10:36:17;;;;;;;;;;;;;;;;;;5053568;28;1570;-67
2022/05/21 10:38:48;;;;;;;;;;;;;;;;;;5061540;28;1655;-67
2022/05/21 10:41:37;;;;;;;;;;;;;;;;;;5053367;28;1898;-67
2022/05/21 10:44:02;;;;;;;;;;;;;;;;;;5059871;28;1714;-67
2022/05/21 10:46:36;;;;;;;;;;;;;;;;;;5060624;28;1080;-67
2022/05/21 10:49:14;;;;;;;;;;;;;;;;;;5054802;28;1639;-67
2022/05/21 10:51:46;;;;;;;;;;;;;;;;;;5056657;28;1751;-67
2022/05/21 10:54:31;;;;;;;;;;;;;;;;;;5050635;28;1930;-66
2022/05/21 10:57:04;;;;;;;;;;;;;;;;;;5052372;28;1596;-67
2022/05/21 10:59:38;;;;;;;;;;;;;;;;;;5058313;28;1885;-67
2022/05/21 11:02:18;;;;;;;;;;;;;;;;;;5060139;28;906;-67
2022/05/21 11:05:02;;;;;;;;;;;;;;;;;;5045080;28;1855;-67
2022/05/21 11:07:46;;;;;;;;;;;;;;;;;;5056923;28;1564;-67
2022/05/21 11:10:21;;;;;;;;;;;;;;;;;;5046296;28;1984;-67
2022/05/21 11:13:05;;;;;;;;;;;;;;;;;;5050700;28;1878;-67
2022/05/21 11:15:43;;;;;;;;;;;;;;;;;;5055075;28;1678;-67
2022/05/21 11:18:16;;;;;;;;;;;;;;;;;;5058129;28;1569;-67
2022/05/21 11:20:47;;;;;;;;;;;;;;;;;;5058502;28;1906;-67
2022/05/21 11:23:18;;;;;;;;;;;;;;;;;;5058261;28;1906;-67
2022/05/21 11:25:47;;;;;;;;;;;;;;;;;;5053407;28;1969;-67
2022/05/21 11:28:24;;;;;;;;;;;;;;;;;;5061333;28;1918;-67
2022/05/21 11:30:57;;;;;;;;;;;;;;;;;;5059299;28;1929;-67
2022/05/21 11:38:58;;;;;;;;;;;;;;;;;;5056606;28;1807;-67
2022/05/21 11:41:43;;;;;;;;;;;;;;;;;;5061526;28;1616;-67
2022/05/21 11:47:06;;;;;;;;;;;;;;;;;;5054090;28;1695;-66
2022/05/21 11:50:07;;;;;;;;;;;;;;;;;;5060574;28;1732;-67
2022/05/21 11:52:35;;;;;;;;;;;;;;;;;;5023092;28;1694;-67
2022/05/21 11:55:01;;;;;;;;;;;;;;;;;;5055872;28;1584;-67
2022/05/21 11:57:32;;;;;;;;;;;;;;;;;;5061853;28;1692;-67
2022/05/21 11:59:58;;;;;;;;;;;;;;;;;;5057406;28;1963;-67
2022/05/21 12:02:25;;;;;;;;;;;;;;;;;;5061805;28;1187;-67
2022/05/21 12:05:01;;;;;;;;;;;;;;;;;;5059597;28;1882;-67
2022/05/21 12:07:43;;;;;;;;;;;;;;;;;;5048294;28;1664;-67
2022/05/21 12:10:28;;;;;;;;;;;;;;;;;;5056532;28;1506;-67
2022/05/21 12:13:06;;;;;;;;;;;;;;;;;;5055237;28;1692;-67
2022/05/21 12:15:37;;;;;;;;;;;;;;;;;;5056793;28;1647;-67
2022/05/21 12:18:04;;;;;;;;;;;;;;;;;;5056503;28;1629;-67
2022/05/21 12:20:47;;;;;;;;;;;;;;;;;;5051699;28;1906;-67
2022/05/21 12:23:48;;;;;;;;;;;;;;;;;;5057606;28;1978;-67
2022/05/21 12:26:13;;;;;;;;;;;;;;;;;;5061090;28;1510;-67
2022/05/21 12:28:46;;;;;;;;;;;;;;;;;;5059138;28;1723;-67
2022/05/21 12:31:31;;;;;;;;;;;;;;;;;;5055653;28;1608;-66
2022/05/21 12:34:06;;;;;;;;;;;;;;;;;;5059190;28;1715;-67
2022/05/21 12:36:50;;;;;;;;;;;;;;;;;;5055212;28;1455;-67
2022/05/21 12:39:17;;;;;;;;;;;;;;;;;;5060001;28;1951;-66
2022/05/21 12:41:45;;;;;;;;;;;;;;;;;;5051959;28;1537;-67
2022/05/21 12:44:11;;;;;;;;;;;;;;;;;;5061181;28;1616;-67
2022/05/21 12:46:38;;;;;;;;;;;;;;;;;;5059981;28;1910;-66
2022/05/21 12:49:07;;;;;;;;;;;;;;;;;;5053589;28;1965;-67
2022/05/21 12:51:40;;;;;;;;;;;;;;;;;;5056727;28;1700;-66
2022/05/21 12:54:16;;;;;;;;;;;;;;;;;;5056795;28;1652;-66
2022/05/21 12:56:41;;;;;;;;;;;;;;;;;;5056472;28;1626;-67
2022/05/21 12:59:08;;;;;;;;;;;;;;;;;;5064076;28;1947;-67
2022/05/21 13:01:35;;;;;;;;;;;;;;;;;;5053883;28;941;-67
2022/05/21 13:04:01;;;;;;;;;;;;;;;;;;5058126;28;1957;-67
2022/05/21 13:06:28;;;;;;;;;;;;;;;;;;5058283;28;1647;-67
2022/05/21 13:08:53;;;;;;;;;;;;;;;;;;5056486;28;1580;-67
2022/05/21 13:11:19;;;;;;;;;;;;;;;;;;5057469;28;1807;-67
2022/05/21 13:13:57;;;;;;;;;;;;;;;;;;5060712;28;1882;-67
2022/05/21 13:16:23;;;;;;;;;;;;;;;;;;5049276;28;1858;-67
2022/05/21 13:19:06;;;;;;;;;;;;;;;;;;5052834;28;1536;-67
2022/05/21 13:21:35;;;;;;;;;;;;;;;;;;5058598;28;1751;-66
2022/05/21 13:24:09;;;;;;;;;;;;;;;;;;5059794;28;1934;-67
2022/05/21 13:26:35;;;;;;;;;;;;;;;;;;5056043;28;1891;-67
2022/05/21 13:29:19;;;;;;;;;;;;;;;;;;5053112;28;1612;-68
2022/05/21 13:31:45;;;;;;;;;;;;;;;;;;5056761;28;1576;-68
2022/05/21 13:34:16;;;;;;;;;;;;;;;;;;5058820;28;1605;-69
2022/05/21 13:36:44;;;;;;;;;;;;;;;;;;5060964;28;1495;-69
2022/05/21 13:39:13;;;;;;;;;;;;;;;;;;5059106;28;1963;-68
2022/05/21 13:41:40;;;;;;;;;;;;;;;;;;5058888;28;1600;-68
2022/05/21 13:44:07;;;;;;;;;;;;;;;;;;5051821;28;1561;-68
2022/05/21 13:46:34;;;;;;;;;;;;;;;;;;5051071;28;1510;-72
2022/05/21 13:49:01;;;;;;;;;;;;;;;;;;5060312;28;1264;-68
2022/05/21 13:51:28;;;;;;;;;;;;;;;;;;5055376;28;1422;-68
2022/05/21 13:53:56;;;;;;;;;;;;;;;;;;5061162;28;1361;-68
2022/05/21 13:56:31;;;;;;;;;;;;;;;;;;5058893;28;1332;-69
2022/05/21 13:59:11;;;;;;;;;;;;;;;;;;5046312;28;1343;-68
2022/05/21 14:01:38;;;;;;;;;;;;;;;;;;5041066;28;1088;-68
2022/05/21 14:04:08;;;;;;;;;;;;;;;;;;5040991;28;803;-68
2022/05/21 14:06:39;;;;;;;;;;;;;;;;;;5043939;28;1447;-68
2022/05/21 14:09:04;;;;;;;;;;;;;;;;;;5060123;28;1331;-68
2022/05/21 14:11:30;;;;;;;;;;;;;;;;;;5058168;28;1368;-68
2022/05/21 14:14:01;;;;;;;;;;;;;;;;;;5060819;28;1056;-69
2022/05/21 14:16:34;;;;;;;;;;;;;;;;;;5057445;28;1550;-69
2022/05/21 14:19:17;;;;;;;;;;;;;;;;;;5058646;28;1482;-69
2022/05/21 14:22:05;;;;;;;;;;;;;;;;;;5060720;28;1008;-69
2022/05/21 14:24:35;;;;;;;;;;;;;;;;;;5059427;28;1517;-69
2022/05/21 14:27:29;;;;;;;;;;;;;;;;;;5050350;28;1423;-69
2022/05/21 14:29:55;;;;;;;;;;;;;;;;;;5048769;28;1536;-68
2022/05/21 14:32:29;;;;;;;;;;;;;;;;;;5059739;28;1520;-68
2022/05/21 14:35:12;;;;;;;;;;;;;;;;;;5060385;28;1513;-68
2022/05/21 14:37:38;;;;;;;;;;;;;;;;;;5059663;28;1290;-68
2022/05/21 14:40:04;;;;;;;;;;;;;;;;;;5059633;28;1965;-68
2022/05/21 14:42:30;;;;;;;;;;;;;;;;;;5056386;28;1341;-68
2022/05/21 14:44:55;;;;;;;;;;;;;;;;;;5060444;28;1710;-68
2022/05/21 14:52:49;;;;;;;;;;;;;;;;;;5060705;28;699;-68
2022/05/21 14:55:15;;;;;;;;;;;;;;;;;;5062514;28;1435;-69
2022/05/21 14:57:40;;;;;;;;;;;;;;;;;;5062669;28;1880;-71
2022/05/21 15:00:06;;;;;;;;;;;;;;;;;;5062391;28;1967;-69
2022/05/21 15:02:31;;;;;;;;;;;;;;;;;;5063464;28;1754;-69
2022/05/21 15:04:56;;;;;;;;;;;;;;;;;;5056802;28;1590;-69
2022/05/21 15:07:22;;;;;;;;;;;;;;;;;;5062978;28;1222;-68
2022/05/21 15:09:49;;;;;;;;;;;;;;;;;;5062800;28;1497;-68
2022/05/21 15:12:14;;;;;;;;;;;;;;;;;;5061886;28;1517;-68
2022/05/21 15:14:39;;;;;;;;;;;;;;;;;;5062391;28;1446;-68
2022/05/21 15:17:07;;;;;;;;;;;;;;;;;;5063367;28;811;-68
2022/05/21 15:19:32;;;;;;;;;;;;;;;;;;5062800;28;1968;-69
2022/05/21 15:21:58;;;;;;;;;;;;;;;;;;5063467;28;985;-69
2022/05/21 15:24:24;;;;;;;;;;;;;;;;;;5059668;28;1374;-69
2022/05/21 15:26:50;;;;;;;;;;;;;;;;;;5063271;28;1076;-69
2022/05/21 15:29:15;;;;;;;;;;;;;;;;;;5060209;28;1462;-69
2022/05/21 15:31:40;;;;;;;;;;;;;;;;;;5043593;28;1420;-69
2022/05/21 15:34:05;;;;;;;;;;;;;;;;;;5043081;28;933;-69
2022/05/21 15:36:30;;;;;;;;;;;;;;;;;;5043573;28;871;-69
2022/05/21 15:38:56;;;;;;;;;;;;;;;;;;5047559;28;1553;-68
2022/05/21 15:41:25;;;;;;;;;;;;;;;;;;5062844;28;1890;-68
2022/05/21 15:43:54;;;;;;;;;;;;;;;;;;5063182;28;886;-69
2022/05/21 15:46:19;;;;;;;;;;;;;;;;;;5057914;28;1486;-69
2022/05/21 15:48:45;;;;;;;;;;;;;;;;;;5059428;28;1388;-69
2022/05/21 15:51:10;;;;;;;;;;;;;;;;;;5063095;28;795;-69
2022/05/21 15:53:35;;;;;;;;;;;;;;;;;;5061292;28;1509;-68
2022/05/21 15:56:02;;;;;;;;;;;;;;;;;;5062854;28;1475;-69
2022/05/21 15:58:28;;;;;;;;;;;;;;;;;;5056038;28;1541;-68
2022/05/21 16:00:54;;;;;;;;;;;;;;;;;;5060607;28;1960;-68
2022/05/21 16:03:19;;;;;;;;;;;;;;;;;;5062589;28;1216;-68
2022/05/21 16:05:45;;;;;;;;;;;;;;;;;;5062005;28;977;-68
2022/05/21 16:08:12;;;;;;;;;;;;;;;;;;5060536;28;1493;-69
2022/05/21 16:10:39;;;;;;;;;;;;;;;;;;5050410;28;1525;-69
2022/05/21 16:13:04;;;;;;;;;;;;;;;;;;5042594;28;818;-69
2022/05/21 16:15:38;;;;;;;;;;;;;;;;;;5055894;28;1494;-68
2022/05/21 16:18:03;;;;;;;;;;;;;;;;;;5066199;28;1248;-69
2022/05/21 16:20:29;;;;;;;;;;;;;;;;;;5062769;28;1893;-69
2022/05/21 16:22:54;;;;;;;;;;;;;;;;;;5057103;28;1478;-69
2022/05/21 16:25:19;;;;;;;;;;;;;;;;;;5061893;28;1321;-69
2022/05/21 16:27:44;;;;;;;;;;;;;;;;;;5052858;28;1431;-69
2022/05/21 16:30:10;;;;;;;;;;;;;;;;;;5045244;28;1472;-68
2022/05/21 16:32:35;;;;;;;;;;;;;;;;;;5060420;28;933;-70
2022/05/21 16:35:00;;;;;;;;;;;;;;;;;;5063086;28;780;-70
2022/05/21 16:37:26;;;;;;;;;;;;;;;;;;5062573;28;849;-70
2022/05/21 16:39:52;;;;;;;;;;;;;;;;;;5061688;28;1885;-70
2022/05/21 16:42:18;;;;;;;;;;;;;;;;;;5060211;28;1717;-69
2022/05/21 16:44:44;;;;;;;;;;;;;;;;;;5061370;28;1364;-69
2022/05/21 16:47:09;;;;;;;;;;;;;;;;;;5062095;28;1439;-70
2022/05/21 16:49:35;;;;;;;;;;;;;;;;;;5059757;28;1200;-70
2022/05/21 16:52:01;;;;;;;;;;;;;;;;;;5060670;28;1116;-69
2022/05/21 16:54:29;;;;;;;;;;;;;;;;;;5060261;28;1431;-70
2022/05/21 16:56:54;;;;;;;;;;;;;;;;;;5062192;28;795;-69
2022/05/21 16:59:19;;;;;;;;;;;;;;;;;;5058303;28;3090;-69
2022/05/21 17:01:48;;;;;;;;;;;;;;;;;;5061343;28;1144;-69
2022/05/21 17:04:17;;;;;;;;;;;;;;;;;;5061983;28;862;-70
2022/05/21 17:06:42;;;;;;;;;;;;;;;;;;5060372;28;1370;-69
2022/05/21 17:09:08;;;;;;;;;;;;;;;;;;5057162;28;1646;-69
2022/05/21 17:11:33;;;;;;;;;;;;;;;;;;5060152;28;1576;-69
2022/05/21 17:13:59;;;;;;;;;;;;;;;;;;5047023;28;1486;-69
2022/05/21 17:16:24;;;;;;;;;;;;;;;;;;5041907;28;1643;-69
2022/05/21 17:18:51;;;;;;;;;;;;;;;;;;5041264;28;1208;-69
2022/05/21 17:21:16;;;;;;;;;;;;;;;;;;5042137;28;1930;-68
2022/05/21 17:23:41;;;;;;;;;;;;;;;;;;5060881;28;1651;-69
2022/05/21 17:26:07;;;;;;;;;;;;;;;;;;5044677;28;1542;-70
2022/05/21 17:31:16;;;;;;;;;;;;;;;;;;5059506;28;1486;-70
2022/05/21 17:33:41;;;;;;;;;;;;;;;;;;5061678;28;787;-69
2022/05/21 17:36:07;;;;;;;;;;;;;;;;;;5055876;28;1391;-71
2022/05/21 17:38:34;;;;;;;;;;;;;;;;;;5056837;28;1394;-70
2022/05/21 17:40:59;;;;;;;;;;;;;;;;;;5059305;28;1961;-69
2022/05/21 17:43:24;;;;;;;;;;;;;;;;;;5061324;28;1078;-69
2022/05/21 17:45:50;;;;;;;;;;;;;;;;;;5043828;28;1391;-71